X  Close Metar Aviation Weather Data     EKVJ Stauning Airport
Temperature
6°C Temperature
6°C Dewpoint
100% Humidity



Wind
8 M/S
18 MPH
29 KM/H
16 KTS



210°
SSW
Current Conditions

Light Rain, Light Drizzle, Mist Light Rain, Light Drizzle, Mist
Pressure 987.92 (hPa) - 29.17 (inHg)
Visibility 1.2 (mile) - 2 (km)
Airport
Airport-code EKVJ

Location: Stauning Airport
Distance: 14 (km)

Metar:
EKVJ 201520Z 21016KT 2200 -RADZ BR SCT003 BKN005 06/06 Q0988

Time: 01-20-2021 16:20 CET